Have a Safe July 4th! 

Flight Track Log - Related Links

Times and Time Zones

All times are in EDT time to prevent confusion due to time zone crossing. See the AAL2345 flight status page for this flight to view local times or setup timezone preferences in your user account.

Time Position Orientation Groundspeed Altitude Reporting Facility
EDT Latitude Longitude Course Direction KTS MPH feet Rate Location/Type
Mon 06:40:42 PM 41.9333 -87.9167 207° Southwest 187 215 1,800  Level Chicago TRACON
Mon 06:41:42 PM 41.8833 -87.9333 194° South 232 267 3,600 1,488 Climbing Chicago TRACON
Mon 06:42:00 PM 41.8304 -88.0859 201° Southwest  Level Estimated
Mon 06:42:51 PM 41.8025 -87.9419 217° Southwest 253 291 5,000  Level Chicago Center
Mon 06:43:00 PM 41.7296 -88.0848 180° South  Level FlightAware Approximate
Mon 06:43:00 PM 41.7676 -87.9990 217° Southwest  Level FlightAware Approximate
Mon 06:43:52 PM 41.7281 -87.9358 176° South 265 305 7,400  Level Chicago Center
Mon 06:44:00 PM 41.6542 -88.1745 197° South  Level Estimated
Mon 06:44:54 PM 41.6572 -87.9761 203° Southwest 292 336 9,900  Level Chicago Center
Mon 06:45:00 PM 41.5788 -88.2641 194° South  Level Estimated
Mon 06:45:56 PM 41.5869 -88.0308 210° Southwest 296 341 12,600  Level Chicago Center
Mon 06:46:00 PM 41.4999 -88.3575 207° Southwest  Level Estimated
Mon 06:46:58 PM 41.5128 -88.0925 212° Southwest 314 361 14,000  Level Chicago Center
Mon 06:48:00 PM 41.4103 -88.1747 211° Southwest 376 433 15,900 1,984 Climbing Chicago Center
Mon 06:49:02 PM 41.3117 -88.2239 201° Southwest 387 445 18,100 2,081 Climbing Chicago Center
Mon 06:50:04 PM 41.2097 -88.2703 199° South 391 450 20,200 1,935 Climbing Chicago Center
Mon 06:51:06 PM 41.0831 -88.3278 199° South 403 464 22,100 1,790 Climbing Chicago Center
Mon 06:52:08 PM 40.9733 -88.3758 198° South 415 478 23,900 1,597 Climbing Chicago Center
Mon 06:53:10 PM 40.8619 -88.4253 199° South 423 487 25,400 1,355 Climbing Chicago Center
Mon 06:54:12 PM 40.7472 -88.4769 199° South 433 498 26,700 1,210 Climbing Chicago Center
Mon 06:55:14 PM 40.6317 -88.5278 198° South 440 506 27,900 1,403 Climbing Chicago Center
Mon 06:56:16 PM 40.5136 -88.5806 199° South 449 517 29,600 1,597 Climbing Chicago Center
Mon 06:57:18 PM 40.3797 -88.6372 198° South 443 510 31,200 1,065 Climbing Chicago Center
Mon 06:58:20 PM 40.2708 -88.7156 209° Southwest 452 520 31,800 387 Climbing Chicago Center
Mon 06:59:22 PM 40.1736 -88.8144 218° Southwest 446 513 32,000 97 Climbing Chicago Center
Mon 07:00:24 PM 40.0775 -88.9136 218° Southwest 443 510 32,000  Level Chicago Center
Mon 07:01:26 PM 39.9794 -89.0150 218° Southwest 447 514 32,000 48 Level Chicago Center
Mon 07:02:28 PM 39.8633 -89.1331 218° Southwest 442 509 32,100 677 Climbing Chicago Center
Mon 07:03:30 PM 39.7692 -89.2275 218° Southwest 428 493 33,400 958 Climbing Chicago Center
Mon 07:04:27 PM 39.6894 -89.3094 218° Southwest 430 495 34,000 298 Climbing Kansas City Center
Mon 07:05:31 PM 39.5964 -89.4044 218° Southwest 427 491 34,000  Level Kansas City Center
Mon 07:06:34 PM 39.5042 -89.4964 218° Southwest 421 484 34,000  Level Kansas City Center
Mon 07:07:35 PM 39.3931 -89.6083 218° Southwest 422 486 34,000  Level Kansas City Center
Mon 07:08:38 PM 39.3011 -89.6994 217° Southwest 420 483 34,000  Level Kansas City Center
Mon 07:09:39 PM 39.2083 -89.7928 218° Southwest 421 484 34,000  Level Kansas City Center
Mon 07:10:42 PM 39.1100 -89.8942 219° Southwest 418 481 34,000  Level Kansas City Center
Mon 07:11:44 PM 39.0186 -89.9833 217° Southwest 415 478 34,000  Level Kansas City Center
Mon 07:12:46 PM 38.9450 -90.0778 225° Southwest 411 473 34,000  Level Kansas City Center
Mon 07:13:46 PM 38.8592 -90.1956 227° Southwest 408 470 34,000  Level Kansas City Center
Mon 07:14:49 PM 38.7808 -90.3025 227° Southwest 409 471 34,000  Level Kansas City Center
Mon 07:15:50 PM 38.6858 -90.4311 227° Southwest 411 473 34,000  Level Kansas City Center
Mon 07:16:53 PM 38.6064 -90.5369 226° Southwest 411 473 34,000  Level Kansas City Center
Mon 07:17:57 PM 38.5275 -90.6439 227° Southwest 411 473 34,000  Level Kansas City Center
Mon 07:18:57 PM 38.4486 -90.7503 227° Southwest 428 493 34,000  Level Kansas City Center
Mon 07:20:00 PM 38.3692 -90.8539 226° Southwest 416 479 34,000  Level Kansas City Center
Mon 07:21:01 PM 38.2858 -90.9503 222° Southwest 409 471 34,000  Level Kansas City Center
Mon 07:22:02 PM 38.2039 -91.0497 224° Southwest 408 470 34,000  Level Kansas City Center
Mon 07:23:07 PM 38.1011 -91.1717 223° Southwest 406 467 34,000  Level Kansas City Center
Mon 07:24:09 PM 38.0183 -91.2700 223° Southwest 406 467 34,000  Level Kansas City Center
Mon 07:25:09 PM 37.9358 -91.3697 224° Southwest 406 467 34,000  Level Kansas City Center
Mon 07:26:13 PM 37.8558 -91.4681 224° Southwest 402 463 34,000  Level Kansas City Center
Mon 07:27:15 PM 37.7728 -91.5656 223° Southwest 403 464 34,000  Level Kansas City Center
Mon 07:28:15 PM 37.6911 -91.6622 223° Southwest 401 461 34,000  Level Kansas City Center
Mon 07:29:19 PM 37.6097 -91.7600 224° Southwest 401 461 34,000  Level Kansas City Center
Mon 07:30:19 PM 37.5275 -91.8572 223° Southwest 401 461 34,000  Level Kansas City Center
Mon 07:31:23 PM 37.4286 -91.9725 223° Southwest 401 461 34,000  Level Kansas City Center
Mon 07:32:24 PM 37.3472 -92.0689 223° Southwest 400 460 34,000  Level Kansas City Center
Mon 07:33:25 PM 37.2653 -92.1656 223° Southwest 401 461 34,000  Level Kansas City Center
Mon 07:34:28 PM 37.1836 -92.2597 223° Southwest 399 459 34,000  Level Kansas City Center
Mon 07:35:30 PM 37.1022 -92.3553 223° Southwest 399 459 34,000  Level Kansas City Center
Mon 07:36:31 PM 37.0203 -92.4500 223° Southwest 399 459 34,000  Level Kansas City Center
Mon 07:37:34 PM 36.9381 -92.5428 222° Southwest 398 458 34,000  Level Kansas City Center
Mon 07:39:27 PM 36.7697 -92.7347 222° Southwest 413 475 34,000  Level Memphis Center
Mon 07:40:27 PM 36.6744 -92.8042 210° Southwest 408 470 34,000  Level Memphis Center
Mon 07:41:27 PM 36.5672 -92.8528 200° South 400 460 34,000  Level Memphis Center
Mon 07:42:27 PM 36.4600 -92.9011 200° South 406 467 34,000  Level Memphis Center
Mon 07:43:27 PM 36.3633 -92.9392 198° South 413 475 34,000  Level Memphis Center
Mon 07:44:27 PM 36.2803 -93.0294 221° Southwest 392 451 34,000  Level Memphis Center
Mon 07:45:27 PM 36.2072 -93.1272 227° Southwest 392 451 34,000  Level Memphis Center
Mon 07:46:27 PM 36.1297 -93.2300 227° Southwest 403 464 34,000  Level Memphis Center
Mon 07:47:27 PM 36.0564 -93.3328 229° Southwest 409 471 34,000  Level Memphis Center
Mon 07:48:27 PM 35.9811 -93.4300 226° Southwest 409 471 34,000  Level Memphis Center
Mon 07:49:27 PM 35.9036 -93.5297 226° Southwest 409 471 34,000  Level Memphis Center
Mon 07:50:27 PM 35.8281 -93.6292 227° Southwest 409 471 34,000  Level Memphis Center
Mon 07:51:27 PM 35.7544 -93.7286 228° Southwest 409 471 34,000  Level Memphis Center
Mon 07:52:27 PM 35.6767 -93.8275 226° Southwest 409 471 34,000  Level Memphis Center
Mon 07:53:27 PM 35.5922 -93.9364 226° Southwest 409 471 34,000  Level Memphis Center
Mon 07:54:27 PM 35.5164 -94.0325 226° Southwest 404 465 34,000  Level Memphis Center
Mon 07:55:27 PM 35.4447 -94.1264 227° Southwest 404 465 34,000  Level Memphis Center
Mon 07:56:27 PM 35.3667 -94.2247 226° Southwest 404 465 34,000  Level Memphis Center
Mon 07:57:27 PM 35.2906 -94.3228 226° Southwest 404 465 34,000  Level Memphis Center
Mon 07:58:27 PM 35.2144 -94.4183 226° Southwest 404 465 34,000  Level Memphis Center
Mon 08:00:04 PM 35.1028 -94.5664 227° Southwest 398 458 34,000  Level Fort Worth Center
Mon 08:01:04 PM 35.0278 -94.6625 226° Southwest 398 458 34,000  Level Fort Worth Center
Mon 08:02:04 PM 34.9464 -94.7539 223° Southwest 408 470 34,000  Level Fort Worth Center
Mon 08:03:04 PM 34.8389 -94.7978 199° South 402 463 34,000  Level Fort Worth Center
Mon 08:04:05 PM 34.7194 -94.7711 170° South 397 457 34,000  Level Fort Worth Center
Mon 08:05:04 PM 34.6019 -94.7394 167° South 411 473 34,000  Level Fort Worth Center
Mon 08:06:04 PM 34.4803 -94.7103 169° South 434 499 34,000 -397 Level Fort Worth Center
Mon 08:07:05 PM 34.3897 -94.7736 210° Southwest 408 470 33,200 -1,200 Descending Fort Worth Center
Mon 08:08:04 PM 34.3275 -94.8861 236° Southwest 359 413 31,600 -1,664 Descending Fort Worth Center
Mon 08:09:04 PM 34.2544 -94.9939 231° Southwest 385 443 29,900 -1,750 Descending Fort Worth Center
Mon 08:10:04 PM 34.1897 -95.1061 235° Southwest 407 468 28,100 -1,900 Descending Fort Worth Center
Mon 08:11:04 PM 34.1231 -95.2208 235° Southwest 418 481 26,100 -1,800 Descending Fort Worth Center
Mon 08:12:04 PM 34.0561 -95.3353 235° Southwest 424 488 24,500 -1,050 Descending Fort Worth Center
Mon 08:13:04 PM 33.9933 -95.4519 237° Southwest 424 488 24,000 -700 Descending Fort Worth Center
Mon 08:14:04 PM 33.9239 -95.5636 233° Southwest 424 488 23,100 -1,350 Descending Fort Worth Center
Mon 08:15:04 PM 33.8567 -95.6678 232° Southwest 417 480 21,300 -1,736 Descending Fort Worth Center
Mon 08:16:05 PM 33.7911 -95.7739 233° Southwest 411 473 19,600 -1,800 Descending Fort Worth Center
Mon 08:17:04 PM 33.7278 -95.8775 234° Southwest 406 467 17,700 -1,866 Descending Fort Worth Center
Mon 08:18:04 PM 33.6644 -95.9783 233° Southwest 393 452 15,900 -1,537 Descending Fort Worth Center
Mon 08:19:05 PM 33.6028 -96.0767 233° Southwest 382 440 14,600 -1,150 Descending Fort Worth Center
Mon 08:20:04 PM 33.5453 -96.1697 233° Southwest 370 426 13,600 -958 Descending Fort Worth Center
Mon 08:21:04 PM 33.4939 -96.2528 233° Southwest 344 396 12,700 -1,100 Descending Fort Worth Center
Mon 08:22:04 PM 33.4467 -96.3281 233° Southwest 311 358 11,400 -850 Descending Fort Worth Center
Mon 08:23:04 PM 33.3972 -96.4033 232° Southwest 294 338 11,000 -567 Descending Fort Worth Center
Mon 08:24:11 PM 33.3333 -96.4833 226° Southwest 281 323 10,200 -1,039 Descending Dallas / Fort Worth TRACON
Mon 08:25:11 PM 33.2833 -96.5500 228° Southwest 278 320 8,800 -1,500 Descending Dallas / Fort Worth TRACON
Mon 08:26:11 PM 33.2333 -96.6167 228° Southwest 268 308 7,200 -1,500 Descending Dallas / Fort Worth TRACON
Mon 08:27:11 PM 33.2000 -96.7000 244° Southwest 268 308 5,800 -1,115 Descending Dallas / Fort Worth TRACON
Mon 08:28:04 PM 33.1761 -96.7631 246° West 268 308 5,100 -425 Descending Fort Worth Center
Mon 08:29:04 PM 33.1494 -96.8403 248° West 268 308 5,000 -520 Descending Fort Worth Center
Mon 08:30:11 PM 33.1167 -96.9167 243° Southwest 218 251 4,000 -898 Descending Dallas / Fort Worth TRACON
Mon 08:31:11 PM 33.0833 -96.9667 232° Southwest 213 245 3,100 -500 Descending Dallas / Fort Worth TRACON
Mon 08:32:11 PM 33.0500 -97.0167 232° Southwest 168 193 3,000 -400 Descending Dallas / Fort Worth TRACON
Mon 08:33:11 PM 33.0000 -97.0167 180° South 168 193 2,300 -800 Descending Dallas / Fort Worth TRACON
Mon 08:34:11 PM 32.9667 -97.0167 180° South 130 150 1,400 -750 Descending Dallas / Fort Worth TRACON
Mon 08:35:11 PM 32.9167 -97.0167 180° South 135 155 800 -600 Descending Dallas / Fort Worth TRACON

Login

Don't have an account? Register now (free) for customized features, flight alerts, and more!